aviador You're here:

LKMT Decoded Metar

OSTRAVA in CZECH REPUBLIC
Report Time2017-11-24 20:00:00
UTC Time2017-11-24 20:30:03
Flight Rules mvfr MVFR
Wind210° at 09 kt
W.Decomp.*RWY 22: 8.7 kt HW 2.2 kt LCW
W.Rank210° ranks 3
Current wind is above 210° avg. (8.3)
Visibility7000 m
Phenomena:N/A
Clouds:N/A
Expected CloudBase > 400 ft AGL from Temp-Dew spread
CeilingNone
Temp05°C (ISA -8)
Dew Point04°C (93% RH)
AAT0.4°C
QNH1016 hPa
Density Alt-154 ft
Elevation840 ft
Report Wrong Elevation
Raw Report
LKMT 242000Z 21009KT 7000 NSC 05/04 Q1016 NOSIG=

Extra information for LKMT:More info

Metar Taf Metar & Taf Last 4 Metars F.Rules Stats Wind Profile Meteogram Temp Stats Airport Information Weather charts Add Link Nearby VenuesMetar ALERT Operation Metar Decoded Social comments